createdAt,value
2022-08-17T00:01:31.471Z,4.78
2022-08-17T00:04:19.416Z,5.90
2022-08-17T00:06:48.777Z,5.35
2022-08-17T00:09:18.836Z,5.73
2022-08-17T00:12:35.042Z,5.88
2022-08-17T00:14:36.091Z,4.93
2022-08-17T00:17:04.649Z,5.60
2022-08-17T00:19:32.711Z,4.72
2022-08-17T00:22:34.522Z,5.77
2022-08-17T00:24:49.743Z,5.35
2022-08-17T00:27:16.259Z,5.10
2022-08-17T00:29:42.762Z,5.57
2022-08-17T00:33:11.855Z,5.18
2022-08-17T00:34:55.692Z,5.40
2022-08-17T00:37:22.145Z,5.90
2022-08-17T00:39:48.695Z,5.53
2022-08-17T00:42:17.976Z,5.30
2022-08-17T00:44:45.363Z,4.80
2022-08-17T00:47:11.895Z,6.13
2022-08-17T00:49:38.391Z,5.10
2022-08-17T00:52:15.438Z,5.05
2022-08-17T00:54:44.890Z,5.40
2022-08-17T00:57:17.636Z,5.65
2022-08-17T01:00:01.527Z,5.10
2022-08-17T01:02:42.724Z,6.05
2022-08-17T01:05:16.472Z,7.22
2022-08-17T01:07:47.692Z,7.13
2022-08-17T01:10:59.042Z,6.65
2022-08-17T01:13:03.163Z,6.20
2022-08-17T01:15:32.761Z,6.82
2022-08-17T01:18:00.023Z,7.47
2022-08-17T01:20:26.932Z,6.55
2022-08-17T01:22:53.961Z,7.07
2022-08-17T01:25:21.582Z,5.93
2022-08-17T01:27:49.211Z,5.85
2022-08-17T01:30:57.047Z,5.78
2022-08-17T01:33:04.318Z,5.85
2022-08-17T01:35:31.713Z,5.70
2022-08-17T01:37:58.239Z,5.43
2022-08-17T01:40:35.255Z,5.20
2022-08-17T01:43:10.542Z,5.53
2022-08-17T01:45:44.240Z,5.70
2022-08-17T01:48:12.151Z,6.05
2022-08-17T01:50:42.634Z,5.27
2022-08-17T01:53:34.498Z,5.50
2022-08-17T01:56:10.627Z,5.10
2022-08-17T01:58:38.540Z,5.43
2022-08-17T02:01:06.025Z,5.80
2022-08-17T02:03:34.561Z,5.17
2022-08-17T02:06:02.008Z,5.80
2022-08-17T02:08:38.739Z,5.40
2022-08-17T02:11:11.533Z,5.30
2022-08-17T02:13:38.556Z,5.30
2022-08-17T02:16:05.496Z,5.73
2022-08-17T02:18:32.098Z,5.55
2022-08-17T02:20:58.553Z,5.22
2022-08-17T02:23:28.664Z,6.30
2022-08-17T02:25:57.640Z,6.22
2022-08-17T02:28:24.141Z,5.50
2022-08-17T02:31:00.886Z,5.40
2022-08-17T02:33:43.089Z,5.85
2022-08-17T02:36:12.109Z,5.60
2022-08-17T02:38:39.838Z,5.80
2022-08-17T02:41:06.622Z,5.00
2022-08-17T02:43:33.131Z,5.93
2022-08-17T02:45:59.594Z,5.80
2022-08-17T02:48:31.304Z,5.63
2022-08-17T02:50:59.900Z,5.32
2022-08-17T02:53:27.211Z,5.93
2022-08-17T02:55:53.860Z,6.25
2022-08-17T02:58:34.418Z,5.97
2022-08-17T03:01:04.560Z,6.25
2022-08-17T03:03:31.124Z,6.47
2022-08-17T03:05:57.909Z,5.53
2022-08-17T03:08:25.566Z,5.88
2022-08-17T03:10:52.664Z,5.40
2022-08-17T03:13:20.124Z,5.75
2022-08-17T03:15:47.612Z,6.28
2022-08-17T03:18:25.417Z,6.97
2022-08-17T03:20:58.288Z,7.30
2022-08-17T03:23:25.777Z,6.78
2022-08-17T03:25:54.074Z,7.40
2022-08-17T03:28:22.276Z,7.25
2022-08-17T03:30:51.075Z,7.80
2022-08-17T03:33:18.163Z,7.65
2022-08-17T03:35:45.086Z,7.03
2022-08-17T03:38:15.820Z,6.55
2022-08-17T03:40:58.156Z,6.05
2022-08-17T03:43:27.501Z,5.67
2022-08-17T03:46:27.775Z,6.55
2022-08-17T03:49:14.015Z,6.30
2022-08-17T03:51:58.725Z,6.32
2022-08-17T03:54:44.221Z,5.88
2022-08-17T03:57:11.941Z,5.80
2022-08-17T03:59:39.486Z,6.78
2022-08-17T04:02:34.512Z,6.20
2022-08-17T04:05:01.390Z,5.95
2022-08-17T04:07:30.450Z,5.32
2022-08-17T04:09:58.077Z,5.70
2022-08-17T04:12:25.547Z,6.50
2022-08-17T04:14:54.695Z,6.07
2022-08-17T04:17:29.268Z,5.78
2022-08-17T04:19:56.880Z,5.93
2022-08-17T04:22:30.712Z,6.30
2022-08-17T04:25:01.190Z,5.63
2022-08-17T04:27:27.684Z,6.13
2022-08-17T04:29:55.610Z,5.75
2022-08-17T04:32:58.627Z,5.35
2022-08-17T04:35:09.890Z,5.73
2022-08-17T04:37:36.398Z,6.07
2022-08-17T04:40:22.169Z,5.90
2022-08-17T04:43:05.142Z,6.45
2022-08-17T04:45:32.431Z,5.45
2022-08-17T04:48:01.182Z,6.37
2022-08-17T04:50:27.971Z,6.50
2022-08-17T04:52:55.767Z,6.00
2022-08-17T04:55:22.458Z,6.53
2022-08-17T04:57:48.982Z,5.88
2022-08-17T05:00:15.956Z,5.30
2022-08-17T05:02:50.668Z,6.10
2022-08-17T05:05:32.025Z,6.00
2022-08-17T05:08:01.140Z,5.95
2022-08-17T05:10:30.672Z,6.05
2022-08-17T05:13:02.051Z,6.43
2022-08-17T05:15:33.098Z,6.45
2022-08-17T05:18:04.038Z,6.50
2022-08-17T05:20:31.727Z,6.40
2022-08-17T05:23:01.978Z,6.97
2022-08-17T05:25:34.420Z,6.53
2022-08-17T05:28:02.850Z,6.22
2022-08-17T05:30:29.422Z,5.88
2022-08-17T05:33:08.655Z,14.10
2022-08-17T05:35:37.945Z,17.85
2022-08-17T05:38:05.199Z,7.00
2022-08-17T05:40:32.777Z,7.70
2022-08-17T05:43:12.079Z,6.78
2022-08-17T05:45:55.279Z,6.00
2022-08-17T05:48:35.464Z,6.53
2022-08-17T05:51:28.574Z,6.10
2022-08-17T05:54:21.303Z,5.93
2022-08-17T05:57:05.469Z,6.10
2022-08-17T05:59:50.177Z,6.10
2022-08-17T06:02:45.584Z,5.97
2022-08-17T06:05:51.591Z,6.00
2022-08-17T06:08:23.803Z,6.03
2022-08-17T06:11:20.053Z,6.32
2022-08-17T06:14:18.829Z,6.88
2022-08-17T06:16:55.042Z,5.88
2022-08-17T06:19:40.799Z,6.33
2022-08-17T06:22:11.974Z,6.22
2022-08-17T06:24:51.414Z,6.50
2022-08-17T06:27:41.067Z,5.93
2022-08-17T06:30:12.589Z,5.00
2022-08-17T06:32:43.607Z,6.10
2022-08-17T06:35:18.463Z,5.32
2022-08-17T06:38:04.162Z,5.20
2022-08-17T06:40:50.353Z,5.10
2022-08-17T06:43:48.167Z,5.13
2022-08-17T06:46:35.094Z,4.77
2022-08-17T06:49:26.265Z,4.85
2022-08-17T06:52:00.663Z,4.25
2022-08-17T06:54:39.651Z,3.97
2022-08-17T06:57:29.043Z,3.95
2022-08-17T07:00:04.735Z,3.80
2022-08-17T07:02:58.234Z,3.58
2022-08-17T07:05:32.134Z,3.60
2022-08-17T07:08:07.183Z,3.92
2022-08-17T07:10:44.044Z,3.97
2022-08-17T07:13:30.806Z,3.20
2022-08-17T07:16:15.563Z,3.58
2022-08-17T07:18:43.819Z,4.18
2022-08-17T07:21:26.815Z,3.45
2022-08-17T07:24:29.805Z,4.15
2022-08-17T07:27:04.924Z,3.83
2022-08-17T07:29:35.123Z,4.10
2022-08-17T07:32:01.575Z,3.85
2022-08-17T07:34:29.160Z,3.70
2022-08-17T07:37:05.466Z,3.80
2022-08-17T07:39:31.975Z,3.93
2022-08-17T07:42:03.977Z,3.58
2022-08-17T07:44:30.523Z,3.28
2022-08-17T07:47:23.439Z,3.22
2022-08-17T07:49:49.959Z,3.70
2022-08-17T07:52:50.965Z,4.00
2022-08-17T07:55:35.401Z,3.38
2022-08-17T07:58:03.369Z,3.85
2022-08-17T08:00:32.090Z,3.83
2022-08-17T08:03:31.880Z,3.42
2022-08-17T08:06:03.054Z,3.10
2022-08-17T08:08:43.298Z,3.63
2022-08-17T08:11:27.897Z,2.90
2022-08-17T08:13:54.423Z,3.63
2022-08-17T08:16:29.217Z,3.05
2022-08-17T08:18:59.098Z,3.30
2022-08-17T08:21:31.406Z,3.63
2022-08-17T08:24:30.092Z,3.25
2022-08-17T08:27:37.604Z,3.10
2022-08-17T08:30:18.487Z,3.90
2022-08-17T08:33:23.582Z,3.37
2022-08-17T08:35:58.956Z,3.65
2022-08-17T08:38:32.839Z,3.30
2022-08-17T08:41:21.275Z,3.50
2022-08-17T08:44:06.801Z,3.38
2022-08-17T08:47:29.644Z,3.33
2022-08-17T08:50:37.086Z,3.63
2022-08-17T08:53:32.085Z,2.90
2022-08-17T08:56:53.751Z,3.28
2022-08-17T08:59:45.196Z,3.88
2022-08-17T09:02:46.975Z,3.57
2022-08-17T09:05:29.238Z,4.20
2022-08-17T09:08:07.793Z,3.90
2022-08-17T09:10:52.221Z,3.60
2022-08-17T09:13:46.175Z,3.67
2022-08-17T09:16:33.276Z,3.70
2022-08-17T09:19:11.757Z,3.10
2022-08-17T09:21:52.663Z,3.38
2022-08-17T09:24:40.080Z,3.70
2022-08-17T09:27:13.442Z,3.58
2022-08-17T09:29:47.800Z,3.60
2022-08-17T09:32:20.203Z,3.65
2022-08-17T09:35:00.004Z,4.13
2022-08-17T09:38:17.099Z,4.32
2022-08-17T09:41:01.645Z,4.32
2022-08-17T09:43:56.687Z,3.77
2022-08-17T09:46:43.544Z,4.35
2022-08-17T09:49:15.001Z,3.33
2022-08-17T09:51:48.706Z,3.92
2022-08-17T09:54:41.764Z,3.85
2022-08-17T09:57:31.067Z,3.77
2022-08-17T10:00:16.747Z,3.80
2022-08-17T10:03:02.613Z,3.53
2022-08-17T10:05:39.374Z,3.47
2022-08-17T10:08:27.700Z,3.88
2022-08-17T10:11:18.996Z,3.77
2022-08-17T10:13:54.668Z,3.03
2022-08-17T10:16:41.121Z,3.78
2022-08-17T10:19:16.874Z,3.10
2022-08-17T10:22:32.559Z,3.15
2022-08-17T10:25:22.115Z,2.60
2022-08-17T10:28:05.803Z,3.03
2022-08-17T10:30:43.744Z,3.08
2022-08-17T10:33:20.483Z,3.33
2022-08-17T10:36:18.968Z,3.50
2022-08-17T10:39:05.151Z,3.33
2022-08-17T10:41:40.479Z,3.30
2022-08-17T10:44:38.694Z,2.70
2022-08-17T10:47:11.675Z,3.28
2022-08-17T10:49:48.035Z,3.28
2022-08-17T10:52:20.793Z,3.23
2022-08-17T10:55:06.367Z,3.35
2022-08-17T10:57:34.694Z,3.25
2022-08-17T11:00:10.267Z,4.13
2022-08-17T11:02:45.764Z,3.33
2022-08-17T11:05:12.259Z,3.27
2022-08-17T11:07:43.869Z,3.38
2022-08-17T11:10:52.277Z,3.25
2022-08-17T11:13:30.827Z,3.30
2022-08-17T11:16:39.067Z,3.45
2022-08-17T11:19:17.715Z,3.10
2022-08-17T11:22:03.932Z,2.88
2022-08-17T11:24:43.490Z,3.28
2022-08-17T11:27:35.378Z,3.40
2022-08-17T11:30:10.914Z,3.10
2022-08-17T11:32:48.097Z,3.57
2022-08-17T11:35:21.527Z,3.95
2022-08-17T11:38:14.069Z,3.60
2022-08-17T11:41:08.387Z,3.35
2022-08-17T11:43:59.080Z,3.88
2022-08-17T11:47:28.614Z,3.00
2022-08-17T11:50:28.385Z,3.40
2022-08-17T11:52:55.084Z,3.65
2022-08-17T11:55:38.479Z,3.38
2022-08-17T11:58:30.078Z,3.55
2022-08-17T12:01:02.010Z,2.93
2022-08-17T12:03:34.565Z,3.40
2022-08-17T12:06:19.511Z,3.08
2022-08-17T12:08:55.345Z,3.00
2022-08-17T12:11:55.542Z,3.03
2022-08-17T12:15:08.418Z,3.40
2022-08-17T12:17:41.070Z,3.28
2022-08-17T12:20:22.221Z,3.47
2022-08-17T12:23:14.758Z,3.38
2022-08-17T12:25:45.310Z,3.00
2022-08-17T12:28:32.428Z,3.70
2022-08-17T12:31:11.736Z,3.08
2022-08-17T12:33:43.701Z,2.78
2022-08-17T12:36:15.177Z,3.38
2022-08-17T12:38:50.950Z,3.42
2022-08-17T12:41:30.457Z,3.33
2022-08-17T12:44:23.300Z,3.10
2022-08-17T12:46:55.843Z,3.15
2022-08-17T12:49:28.914Z,3.50
2022-08-17T12:52:17.151Z,3.53
2022-08-17T12:54:59.530Z,3.27
2022-08-17T12:57:39.866Z,3.13
2022-08-17T13:00:17.457Z,3.10
2022-08-17T13:03:07.861Z,3.60
2022-08-17T13:05:40.975Z,3.10
2022-08-17T13:08:18.679Z,3.13
2022-08-17T13:10:55.693Z,3.00
2022-08-17T13:13:31.638Z,3.47
2022-08-17T13:16:20.563Z,3.08
2022-08-17T13:18:54.831Z,3.05
2022-08-17T13:21:26.988Z,3.30
2022-08-17T13:24:08.282Z,3.60
2022-08-17T13:26:40.237Z,3.08
2022-08-17T13:29:19.402Z,3.63
2022-08-17T13:31:52.682Z,2.85
2022-08-17T13:34:26.950Z,3.20
2022-08-17T13:37:32.804Z,3.10
2022-08-17T13:40:11.456Z,3.30
2022-08-17T13:42:52.940Z,3.28
2022-08-17T13:45:38.868Z,2.88
2022-08-17T13:48:11.957Z,3.37
2022-08-17T13:50:45.183Z,3.33
2022-08-17T13:53:26.476Z,3.38
2022-08-17T13:56:01.562Z,2.58
2022-08-17T13:58:35.204Z,2.95
2022-08-17T14:01:35.583Z,2.60
2022-08-17T14:04:05.872Z,3.70
2022-08-17T14:06:52.929Z,2.53
2022-08-17T14:09:24.071Z,2.80
2022-08-17T14:11:51.497Z,3.15
2022-08-17T14:14:18.726Z,3.07
2022-08-17T14:16:45.266Z,3.30
2022-08-17T14:19:14.449Z,3.80
2022-08-17T14:21:43.755Z,3.05
2022-08-17T14:24:19.807Z,3.50
2022-08-17T14:26:46.672Z,3.23
2022-08-17T14:29:15.362Z,2.85
2022-08-17T14:31:42.274Z,3.47
2022-08-17T14:34:15.313Z,2.83
2022-08-17T14:36:48.451Z,3.08
2022-08-17T14:39:16.687Z,2.93
2022-08-17T14:41:43.723Z,2.80
2022-08-17T14:44:13.593Z,2.95
2022-08-17T14:46:41.564Z,3.10
2022-08-17T14:49:10.913Z,3.10
2022-08-17T14:51:43.487Z,2.87
2022-08-17T14:54:11.068Z,2.97
2022-08-17T14:56:38.676Z,3.22
2022-08-17T14:59:05.489Z,2.95
2022-08-17T15:01:33.024Z,3.20
2022-08-17T15:04:00.979Z,2.70
2022-08-17T15:06:27.516Z,2.88
2022-08-17T15:08:54.491Z,3.22
2022-08-17T15:11:21.026Z,3.25
2022-08-17T15:13:52.692Z,3.20
2022-08-17T15:16:20.522Z,3.07
2022-08-17T15:18:47.159Z,2.83
2022-08-17T15:21:14.857Z,3.10
2022-08-17T15:23:41.425Z,3.08
2022-08-17T15:26:10.758Z,3.00
2022-08-17T15:28:37.791Z,2.97
2022-08-17T15:31:06.119Z,2.70
2022-08-17T15:33:32.686Z,2.80
2022-08-17T15:36:01.794Z,3.22
2022-08-17T15:38:28.873Z,4.13
2022-08-17T15:40:57.661Z,2.70
2022-08-17T15:43:32.599Z,2.60
2022-08-17T15:46:12.427Z,3.15
2022-08-17T15:48:41.899Z,3.08
2022-08-17T15:51:11.170Z,3.33
2022-08-17T15:53:39.135Z,3.10
2022-08-17T15:56:07.210Z,2.65
2022-08-17T15:58:34.955Z,4.93
2022-08-17T16:01:14.727Z,5.70
2022-08-17T16:04:04.577Z,15.25
2022-08-17T16:06:32.887Z,4.60
2022-08-17T16:09:00.513Z,3.92
2022-08-17T16:11:27.087Z,7.78
2022-08-17T16:13:54.969Z,4.43
2022-08-17T16:16:23.706Z,3.50
2022-08-17T16:18:53.547Z,3.77
2022-08-17T16:21:26.098Z,4.05
2022-08-17T16:24:12.695Z,6.15
2022-08-17T16:26:41.890Z,6.28
2022-08-17T16:29:08.743Z,3.60
2022-08-17T16:31:37.582Z,3.57
2022-08-17T16:34:17.899Z,3.20
2022-08-17T16:36:54.658Z,2.90
2022-08-17T16:39:24.377Z,3.30
2022-08-17T16:41:50.877Z,3.03
2022-08-17T16:44:21.044Z,3.37
2022-08-17T16:46:48.948Z,3.45
2022-08-17T16:49:31.581Z,3.35
2022-08-17T16:52:04.321Z,3.45
2022-08-17T16:54:30.980Z,3.38
2022-08-17T16:56:57.466Z,3.00
2022-08-17T16:59:31.195Z,3.08
2022-08-17T17:02:10.934Z,3.45
2022-08-17T17:04:50.462Z,2.90
2022-08-17T17:07:32.265Z,3.22
2022-08-17T17:10:15.903Z,2.83
2022-08-17T17:13:03.923Z,3.10
2022-08-17T17:15:42.685Z,3.40
2022-08-17T17:18:13.409Z,3.22
2022-08-17T17:21:01.184Z,3.10
2022-08-17T17:23:45.339Z,3.07
2022-08-17T17:26:28.022Z,3.38
2022-08-17T17:29:09.415Z,3.25
2022-08-17T17:31:45.175Z,3.00
2022-08-17T17:34:15.880Z,3.65
2022-08-17T17:36:48.539Z,3.37
2022-08-17T17:39:31.854Z,3.17
2022-08-17T17:42:02.681Z,3.50
2022-08-17T17:44:49.747Z,3.78
2022-08-17T17:47:16.432Z,3.13
2022-08-17T17:49:45.992Z,3.50
2022-08-17T17:52:41.026Z,3.83
2022-08-17T17:55:23.163Z,3.10
2022-08-17T17:57:49.883Z,3.70
2022-08-17T18:00:22.006Z,3.70
2022-08-17T18:03:39.654Z,3.10
2022-08-17T18:06:18.726Z,3.83
2022-08-17T18:09:15.626Z,3.65
2022-08-17T18:12:06.514Z,3.50
2022-08-17T18:14:54.242Z,3.30
2022-08-17T18:17:20.797Z,4.37
2022-08-17T18:19:48.298Z,4.03
2022-08-17T18:22:22.204Z,4.18
2022-08-17T18:24:56.055Z,4.20
2022-08-17T18:27:25.442Z,3.53
2022-08-17T18:29:54.869Z,3.60
2022-08-17T18:32:26.872Z,4.25
2022-08-17T18:35:15.248Z,3.53
2022-08-17T18:37:46.863Z,4.00
2022-08-17T18:40:16.430Z,3.72
2022-08-17T18:42:58.967Z,4.27
2022-08-17T18:45:40.784Z,3.75
2022-08-17T18:48:33.442Z,4.28
2022-08-17T18:51:20.333Z,3.75
2022-08-17T18:54:14.505Z,4.35
2022-08-17T18:56:51.272Z,4.00
2022-08-17T18:59:29.891Z,4.20
2022-08-17T19:01:59.182Z,4.20
2022-08-17T19:04:34.603Z,3.60
2022-08-17T19:07:25.666Z,4.05
2022-08-17T19:10:08.877Z,4.70
2022-08-17T19:13:12.580Z,4.22
2022-08-17T19:16:11.716Z,3.55
2022-08-17T19:18:38.990Z,3.90
2022-08-17T19:21:30.662Z,4.22
2022-08-17T19:24:07.062Z,4.23
2022-08-17T19:26:53.715Z,4.55
2022-08-17T19:29:42.214Z,3.88
2022-08-17T19:32:10.582Z,3.97
2022-08-17T19:34:39.349Z,4.35
2022-08-17T19:37:17.594Z,4.53
2022-08-17T19:39:50.104Z,4.68
2022-08-17T19:42:41.226Z,4.60
2022-08-17T19:45:24.281Z,4.65
2022-08-17T19:48:15.410Z,4.47
2022-08-17T19:51:20.475Z,4.10
2022-08-17T19:54:06.231Z,4.32
2022-08-17T19:56:57.276Z,3.80
2022-08-17T19:59:48.871Z,4.65
2022-08-17T20:02:20.632Z,4.13
2022-08-17T20:04:50.521Z,4.13
2022-08-17T20:07:40.487Z,4.03
2022-08-17T20:10:12.991Z,4.43
2022-08-17T20:12:44.560Z,4.85
2022-08-17T20:15:27.196Z,4.40
2022-08-17T20:17:58.700Z,4.60
2022-08-17T20:20:47.066Z,4.72
2022-08-17T20:23:49.026Z,4.45
2022-08-17T20:26:21.955Z,4.57
2022-08-17T20:29:13.923Z,4.32
2022-08-17T20:32:13.464Z,4.40
2022-08-17T20:34:40.017Z,4.03
2022-08-17T20:37:15.645Z,4.15
2022-08-17T20:40:05.753Z,4.13
2022-08-17T20:42:33.928Z,4.68
2022-08-17T20:45:21.743Z,3.90
2022-08-17T20:48:18.477Z,4.00
2022-08-17T20:50:43.999Z,4.18
2022-08-17T20:53:15.037Z,4.53
2022-08-17T20:55:51.659Z,4.80
2022-08-17T20:58:42.120Z,3.77
2022-08-17T21:01:16.120Z,4.25
2022-08-17T21:03:50.613Z,4.28
2022-08-17T21:06:21.042Z,4.75
2022-08-17T21:08:53.883Z,4.68
2022-08-17T21:12:03.351Z,3.60
2022-08-17T21:14:26.747Z,3.97
2022-08-17T21:17:18.555Z,4.07
2022-08-17T21:20:22.925Z,4.32
2022-08-17T21:22:55.552Z,4.25
2022-08-17T21:25:40.359Z,4.47
2022-08-17T21:28:10.715Z,4.50
2022-08-17T21:30:39.131Z,3.97
2022-08-17T21:33:20.160Z,3.42
2022-08-17T21:35:59.090Z,4.43
2022-08-17T21:38:41.728Z,3.70
2022-08-17T21:41:20.602Z,3.90
2022-08-17T21:43:50.310Z,3.85
2022-08-17T21:46:29.019Z,4.35
2022-08-17T21:49:02.677Z,4.90
2022-08-17T21:51:40.972Z,4.63
2022-08-17T21:54:25.264Z,4.70
2022-08-17T21:56:52.215Z,4.28
2022-08-17T21:59:19.457Z,3.95
2022-08-17T22:01:57.647Z,4.32
2022-08-17T22:04:42.143Z,4.10
2022-08-17T22:07:11.850Z,3.90
2022-08-17T22:09:47.828Z,4.18
2022-08-17T22:12:20.103Z,4.50
2022-08-17T22:14:54.184Z,4.47
2022-08-17T22:17:27.146Z,4.00
2022-08-17T22:20:14.450Z,4.35
2022-08-17T22:23:08.720Z,4.43
2022-08-17T22:25:40.727Z,4.20
2022-08-17T22:28:09.779Z,4.50
2022-08-17T22:30:58.712Z,4.10
2022-08-17T22:33:37.024Z,3.72
2022-08-17T22:36:29.867Z,4.30
2022-08-17T22:38:58.683Z,4.78
2022-08-17T22:41:31.998Z,4.72
2022-08-17T22:44:07.291Z,5.00
2022-08-17T22:46:39.531Z,5.18
2022-08-17T22:49:06.538Z,5.03
2022-08-17T22:51:33.270Z,5.30
2022-08-17T22:54:35.293Z,5.55
2022-08-17T22:57:22.719Z,5.10
2022-08-17T22:59:52.695Z,5.47
2022-08-17T23:02:23.779Z,5.50
2022-08-17T23:05:10.128Z,6.00
2022-08-17T23:07:36.879Z,7.57
2022-08-17T23:10:06.474Z,5.87
2022-08-17T23:12:38.912Z,6.20
2022-08-17T23:15:12.657Z,6.18
2022-08-17T23:17:39.240Z,6.60
2022-08-17T23:20:09.129Z,6.80
2022-08-17T23:22:38.082Z,7.17
2022-08-17T23:25:27.256Z,6.95
2022-08-17T23:27:54.457Z,7.07
2022-08-17T23:30:21.404Z,7.80
2022-08-17T23:32:53.890Z,7.47
2022-08-17T23:35:39.405Z,7.03
2022-08-17T23:38:07.603Z,8.20
2022-08-17T23:40:34.524Z,9.07
2022-08-17T23:43:01.029Z,8.23
2022-08-17T23:45:32.517Z,7.57
2022-08-17T23:47:58.974Z,8.50
2022-08-17T23:50:25.473Z,8.90
2022-08-17T23:52:57.705Z,8.73
2022-08-17T23:55:24.211Z,9.10
2022-08-17T23:57:50.865Z,9.85
